<?xml version="1.0" encoding="UTF-8" standalone="no" ?>
<gpx xmlns="http://www.topografix.com/GPX/1/1" xmlns:xsi="http://www.w3.org/2001/XMLSchema-instance" xsi:schemaLocation="http://www.topografix.com/GPX/1/1 http://www.topografix.com/GPX/1/1/gpx.xsd" version="1.1" creator="VisuGPX - https://www.visugpx.com">
  <metadata>
    <name>RPM Gr 3a&amp;b : LES CABANELLES</name>
    <desc><![CDATA[Départ au Pont des Demoiselles - vers le Mont Gros - B545 - Vers la Cime des Cabanelles - Antennes - retour par le Pas des Cabanelles - La Terca - Arrivée au Pont des Demoiselles.
]]></desc>
  </metadata>
  <trk>
    <name><![CDATA[Randonnée du 15/01/2020 à 09:10]]></name>
    <trkseg>
      <trkpt lat="43.76145" lon="7.41939">
        <ele>777</ele>
        <time>2020-01-15T09:11:28 01:00</time>
      </trkpt>
      <trkpt lat="43.76191" lon="7.42016">
        <ele>784</ele>
        <time>2020-01-15T09:11:33 01:00</time>
      </trkpt>
      <trkpt lat="43.76318" lon="7.42068">
        <ele>788</ele>
        <time>2020-01-15T09:11:38 01:00</time>
      </trkpt>
      <trkpt lat="43.76346" lon="7.42098">
        <ele>789</ele>
        <time>2020-01-15T09:11:43 01:00</time>
      </trkpt>
      <trkpt lat="43.76362" lon="7.42145">
        <ele>791</ele>
        <time>2020-01-15T09:11:48 01:00</time>
      </trkpt>
      <trkpt lat="43.76328" lon="7.42175">
        <ele>786</ele>
        <time>2020-01-15T09:11:53 01:00</time>
      </trkpt>
      <trkpt lat="43.76349" lon="7.42231">
        <ele>789</ele>
        <time>2020-01-15T09:11:58 01:00</time>
      </trkpt>
      <trkpt lat="43.76331" lon="7.42342">
        <ele>785</ele>
        <time>2020-01-15T09:12:03 01:00</time>
      </trkpt>
      <trkpt lat="43.76374" lon="7.42398">
        <ele>785</ele>
        <time>2020-01-15T09:12:08 01:00</time>
      </trkpt>
      <trkpt lat="43.76346" lon="7.42467">
        <ele>775</ele>
        <time>2020-01-15T09:12:13 01:00</time>
      </trkpt>
      <trkpt lat="43.76377" lon="7.42587">
        <ele>772</ele>
        <time>2020-01-15T09:12:18 01:00</time>
      </trkpt>
      <trkpt lat="43.76353" lon="7.42767">
        <ele>766</ele>
        <time>2020-01-15T09:12:23 01:00</time>
      </trkpt>
      <trkpt lat="43.7634" lon="7.42793">
        <ele>763</ele>
        <time>2020-01-15T09:12:28 01:00</time>
      </trkpt>
      <trkpt lat="43.76371" lon="7.42879">
        <ele>755</ele>
        <time>2020-01-15T09:12:33 01:00</time>
      </trkpt>
      <trkpt lat="43.76393" lon="7.42883">
        <ele>757</ele>
        <time>2020-01-15T09:12:38 01:00</time>
      </trkpt>
      <trkpt lat="43.76458" lon="7.42844">
        <ele>766</ele>
        <time>2020-01-15T09:12:43 01:00</time>
      </trkpt>
      <trkpt lat="43.7648" lon="7.42853">
        <ele>765</ele>
        <time>2020-01-15T09:12:48 01:00</time>
      </trkpt>
      <trkpt lat="43.76548" lon="7.42819">
        <ele>783</ele>
        <time>2020-01-15T09:12:53 01:00</time>
      </trkpt>
      <trkpt lat="43.76597" lon="7.42814">
        <ele>791</ele>
        <time>2020-01-15T09:12:58 01:00</time>
      </trkpt>
      <trkpt lat="43.76697" lon="7.42947">
        <ele>805</ele>
        <time>2020-01-15T09:13:03 01:00</time>
      </trkpt>
      <trkpt lat="43.76749" lon="7.42999">
        <ele>815</ele>
        <time>2020-01-15T09:13:08 01:00</time>
      </trkpt>
      <trkpt lat="43.76755" lon="7.43016">
        <ele>814</ele>
        <time>2020-01-15T09:13:13 01:00</time>
      </trkpt>
      <trkpt lat="43.76801" lon="7.43054">
        <ele>816</ele>
        <time>2020-01-15T09:13:18 01:00</time>
      </trkpt>
      <trkpt lat="43.76835" lon="7.43187">
        <ele>818</ele>
        <time>2020-01-15T09:13:23 01:00</time>
      </trkpt>
      <trkpt lat="43.7684" lon="7.43195">
        <ele>818</ele>
        <time>2020-01-15T09:13:28 01:00</time>
      </trkpt>
      <trkpt lat="43.76871" lon="7.43215">
        <ele>823</ele>
        <time>2020-01-15T09:13:33 01:00</time>
      </trkpt>
      <trkpt lat="43.76911" lon="7.43232">
        <ele>833</ele>
        <time>2020-01-15T09:13:38 01:00</time>
      </trkpt>
      <trkpt lat="43.76953" lon="7.433">
        <ele>844</ele>
        <time>2020-01-15T09:13:43 01:00</time>
      </trkpt>
      <trkpt lat="43.76973" lon="7.43309">
        <ele>849</ele>
        <time>2020-01-15T09:13:48 01:00</time>
      </trkpt>
      <trkpt lat="43.76996" lon="7.43309">
        <ele>854</ele>
        <time>2020-01-15T09:13:53 01:00</time>
      </trkpt>
      <trkpt lat="43.77052" lon="7.43354">
        <ele>853</ele>
        <time>2020-01-15T09:13:58 01:00</time>
      </trkpt>
      <trkpt lat="43.77123" lon="7.43365">
        <ele>854</ele>
        <time>2020-01-15T09:14:03 01:00</time>
      </trkpt>
      <trkpt lat="43.77222" lon="7.43318">
        <ele>873</ele>
        <time>2020-01-15T09:14:08 01:00</time>
      </trkpt>
      <trkpt lat="43.77252" lon="7.4332">
        <ele>872</ele>
        <time>2020-01-15T09:14:13 01:00</time>
      </trkpt>
      <trkpt lat="43.77369" lon="7.43247">
        <ele>878</ele>
        <time>2020-01-15T09:14:18 01:00</time>
      </trkpt>
      <trkpt lat="43.77444" lon="7.43212">
        <ele>875</ele>
        <time>2020-01-15T09:14:23 01:00</time>
      </trkpt>
      <trkpt lat="43.77461" lon="7.43208">
        <ele>878</ele>
        <time>2020-01-15T09:14:28 01:00</time>
      </trkpt>
      <trkpt lat="43.77551" lon="7.4323">
        <ele>883</ele>
        <time>2020-01-15T09:14:33 01:00</time>
      </trkpt>
      <trkpt lat="43.77608" lon="7.43222">
        <ele>887</ele>
        <time>2020-01-15T09:14:38 01:00</time>
      </trkpt>
      <trkpt lat="43.77653" lon="7.43218">
        <ele>887</ele>
        <time>2020-01-15T09:14:43 01:00</time>
      </trkpt>
      <trkpt lat="43.77675" lon="7.43203">
        <ele>889</ele>
        <time>2020-01-15T09:14:48 01:00</time>
      </trkpt>
      <trkpt lat="43.77735" lon="7.4316">
        <ele>894</ele>
        <time>2020-01-15T09:14:53 01:00</time>
      </trkpt>
      <trkpt lat="43.77792" lon="7.43113">
        <ele>899</ele>
        <time>2020-01-15T09:14:58 01:00</time>
      </trkpt>
      <trkpt lat="43.7785" lon="7.43057">
        <ele>903</ele>
        <time>2020-01-15T09:15:03 01:00</time>
      </trkpt>
      <trkpt lat="43.77871" lon="7.43001">
        <ele>911</ele>
        <time>2020-01-15T09:15:08 01:00</time>
      </trkpt>
      <trkpt lat="43.77916" lon="7.42933">
        <ele>910</ele>
        <time>2020-01-15T09:15:13 01:00</time>
      </trkpt>
      <trkpt lat="43.77936" lon="7.42898">
        <ele>911</ele>
        <time>2020-01-15T09:15:18 01:00</time>
      </trkpt>
      <trkpt lat="43.77957" lon="7.4286">
        <ele>911</ele>
        <time>2020-01-15T09:15:23 01:00</time>
      </trkpt>
      <trkpt lat="43.77994" lon="7.4272">
        <ele>922</ele>
        <time>2020-01-15T09:15:28 01:00</time>
      </trkpt>
      <trkpt lat="43.78008" lon="7.42673">
        <ele>928</ele>
        <time>2020-01-15T09:15:33 01:00</time>
      </trkpt>
      <trkpt lat="43.78042" lon="7.42628">
        <ele>926</ele>
        <time>2020-01-15T09:15:38 01:00</time>
      </trkpt>
      <trkpt lat="43.78056" lon="7.42441">
        <ele>939</ele>
        <time>2020-01-15T09:15:43 01:00</time>
      </trkpt>
      <trkpt lat="43.78101" lon="7.42398">
        <ele>940</ele>
        <time>2020-01-15T09:15:48 01:00</time>
      </trkpt>
      <trkpt lat="43.7815" lon="7.42343">
        <ele>950</ele>
        <time>2020-01-15T09:15:53 01:00</time>
      </trkpt>
      <trkpt lat="43.78177" lon="7.42353">
        <ele>942</ele>
        <time>2020-01-15T09:15:58 01:00</time>
      </trkpt>
      <trkpt lat="43.78228" lon="7.42285">
        <ele>954</ele>
        <time>2020-01-15T09:16:03 01:00</time>
      </trkpt>
      <trkpt lat="43.78341" lon="7.42235">
        <ele>958</ele>
        <time>2020-01-15T09:16:08 01:00</time>
      </trkpt>
      <trkpt lat="43.78369" lon="7.42227">
        <ele>959</ele>
        <time>2020-01-15T09:16:13 01:00</time>
      </trkpt>
      <trkpt lat="43.78407" lon="7.42184">
        <ele>957</ele>
        <time>2020-01-15T09:16:18 01:00</time>
      </trkpt>
      <trkpt lat="43.78423" lon="7.42124">
        <ele>967</ele>
        <time>2020-01-15T09:16:23 01:00</time>
      </trkpt>
      <trkpt lat="43.78441" lon="7.42085">
        <ele>973</ele>
        <time>2020-01-15T09:16:28 01:00</time>
      </trkpt>
      <trkpt lat="43.78514" lon="7.42049">
        <ele>974</ele>
        <time>2020-01-15T09:16:33 01:00</time>
      </trkpt>
      <trkpt lat="43.78551" lon="7.42049">
        <ele>980</ele>
        <time>2020-01-15T09:16:38 01:00</time>
      </trkpt>
      <trkpt lat="43.78623" lon="7.421">
        <ele>993</ele>
        <time>2020-01-15T09:16:43 01:00</time>
      </trkpt>
      <trkpt lat="43.78638" lon="7.42124">
        <ele>993</ele>
        <time>2020-01-15T09:16:48 01:00</time>
      </trkpt>
      <trkpt lat="43.78699" lon="7.42162">
        <ele>993</ele>
        <time>2020-01-15T09:16:53 01:00</time>
      </trkpt>
      <trkpt lat="43.78754" lon="7.42128">
        <ele>995</ele>
        <time>2020-01-15T09:16:58 01:00</time>
      </trkpt>
      <trkpt lat="43.7883" lon="7.42104">
        <ele>1012</ele>
        <time>2020-01-15T09:17:03 01:00</time>
      </trkpt>
      <trkpt lat="43.78872" lon="7.42139">
        <ele>1013</ele>
        <time>2020-01-15T09:17:08 01:00</time>
      </trkpt>
      <trkpt lat="43.78928" lon="7.42173">
        <ele>1029</ele>
        <time>2020-01-15T09:17:13 01:00</time>
      </trkpt>
      <trkpt lat="43.78939" lon="7.42169">
        <ele>1034</ele>
        <time>2020-01-15T09:17:18 01:00</time>
      </trkpt>
      <trkpt lat="43.78959" lon="7.42162">
        <ele>1040</ele>
        <time>2020-01-15T09:17:23 01:00</time>
      </trkpt>
      <trkpt lat="43.79001" lon="7.42096">
        <ele>1041</ele>
        <time>2020-01-15T09:17:28 01:00</time>
      </trkpt>
      <trkpt lat="43.79008" lon="7.42049">
        <ele>1041</ele>
        <time>2020-01-15T09:17:33 01:00</time>
      </trkpt>
      <trkpt lat="43.79042" lon="7.42001">
        <ele>1045</ele>
        <time>2020-01-15T09:17:38 01:00</time>
      </trkpt>
      <trkpt lat="43.79103" lon="7.41971">
        <ele>1052</ele>
        <time>2020-01-15T09:17:43 01:00</time>
      </trkpt>
      <trkpt lat="43.79121" lon="7.41926">
        <ele>1050</ele>
        <time>2020-01-15T09:17:48 01:00</time>
      </trkpt>
      <trkpt lat="43.79109" lon="7.41894">
        <ele>1050</ele>
        <time>2020-01-15T09:17:53 01:00</time>
      </trkpt>
      <trkpt lat="43.79109" lon="7.41811">
        <ele>1057</ele>
        <time>2020-01-15T09:17:58 01:00</time>
      </trkpt>
      <trkpt lat="43.79001" lon="7.41868">
        <ele>1059</ele>
        <time>2020-01-15T09:18:03 01:00</time>
      </trkpt>
      <trkpt lat="43.78911" lon="7.41873">
        <ele>1065</ele>
        <time>2020-01-15T09:18:08 01:00</time>
      </trkpt>
      <trkpt lat="43.78888" lon="7.41823">
        <ele>1066</ele>
        <time>2020-01-15T09:18:13 01:00</time>
      </trkpt>
      <trkpt lat="43.78849" lon="7.41828">
        <ele>1063</ele>
        <time>2020-01-15T09:18:18 01:00</time>
      </trkpt>
      <trkpt lat="43.7881" lon="7.41802">
        <ele>1054</ele>
        <time>2020-01-15T09:18:23 01:00</time>
      </trkpt>
      <trkpt lat="43.78734" lon="7.41787">
        <ele>1037</ele>
        <time>2020-01-15T09:18:28 01:00</time>
      </trkpt>
      <trkpt lat="43.7864" lon="7.41808">
        <ele>1024</ele>
        <time>2020-01-15T09:18:33 01:00</time>
      </trkpt>
      <trkpt lat="43.78578" lon="7.41811">
        <ele>1014</ele>
        <time>2020-01-15T09:18:38 01:00</time>
      </trkpt>
      <trkpt lat="43.78503" lon="7.4178">
        <ele>995</ele>
        <time>2020-01-15T09:18:43 01:00</time>
      </trkpt>
      <trkpt lat="43.78379" lon="7.41804">
        <ele>988</ele>
        <time>2020-01-15T09:18:48 01:00</time>
      </trkpt>
      <trkpt lat="43.78279" lon="7.41828">
        <ele>983</ele>
        <time>2020-01-15T09:18:53 01:00</time>
      </trkpt>
      <trkpt lat="43.78214" lon="7.41847">
        <ele>976</ele>
        <time>2020-01-15T09:18:58 01:00</time>
      </trkpt>
      <trkpt lat="43.78142" lon="7.41877">
        <ele>962</ele>
        <time>2020-01-15T09:19:03 01:00</time>
      </trkpt>
      <trkpt lat="43.78118" lon="7.41851">
        <ele>949</ele>
        <time>2020-01-15T09:19:08 01:00</time>
      </trkpt>
      <trkpt lat="43.78074" lon="7.41866">
        <ele>943</ele>
        <time>2020-01-15T09:19:13 01:00</time>
      </trkpt>
      <trkpt lat="43.77991" lon="7.41843">
        <ele>925</ele>
        <time>2020-01-15T09:19:18 01:00</time>
      </trkpt>
      <trkpt lat="43.77958" lon="7.4186">
        <ele>929</ele>
        <time>2020-01-15T09:19:23 01:00</time>
      </trkpt>
      <trkpt lat="43.77943" lon="7.41793">
        <ele>917</ele>
        <time>2020-01-15T09:19:28 01:00</time>
      </trkpt>
      <trkpt lat="43.77908" lon="7.41783">
        <ele>913</ele>
        <time>2020-01-15T09:19:33 01:00</time>
      </trkpt>
      <trkpt lat="43.77864" lon="7.41808">
        <ele>913</ele>
        <time>2020-01-15T09:19:38 01:00</time>
      </trkpt>
      <trkpt lat="43.77786" lon="7.41789">
        <ele>911</ele>
        <time>2020-01-15T09:19:43 01:00</time>
      </trkpt>
      <trkpt lat="43.77726" lon="7.41787">
        <ele>905</ele>
        <time>2020-01-15T09:19:48 01:00</time>
      </trkpt>
      <trkpt lat="43.77706" lon="7.41753">
        <ele>896</ele>
        <time>2020-01-15T09:19:53 01:00</time>
      </trkpt>
      <trkpt lat="43.77653" lon="7.4175">
        <ele>899</ele>
        <time>2020-01-15T09:19:58 01:00</time>
      </trkpt>
      <trkpt lat="43.77535" lon="7.4162">
        <ele>880</ele>
        <time>2020-01-15T09:20:03 01:00</time>
      </trkpt>
      <trkpt lat="43.77535" lon="7.41574">
        <ele>870</ele>
        <time>2020-01-15T09:20:08 01:00</time>
      </trkpt>
      <trkpt lat="43.77507" lon="7.41538">
        <ele>864</ele>
        <time>2020-01-15T09:20:13 01:00</time>
      </trkpt>
      <trkpt lat="43.77448" lon="7.4151">
        <ele>859</ele>
        <time>2020-01-15T09:20:18 01:00</time>
      </trkpt>
      <trkpt lat="43.77433" lon="7.41484">
        <ele>854</ele>
        <time>2020-01-15T09:20:23 01:00</time>
      </trkpt>
      <trkpt lat="43.77363" lon="7.41411">
        <ele>848</ele>
        <time>2020-01-15T09:20:28 01:00</time>
      </trkpt>
      <trkpt lat="43.77317" lon="7.41358">
        <ele>850</ele>
        <time>2020-01-15T09:20:33 01:00</time>
      </trkpt>
      <trkpt lat="43.77314" lon="7.41321">
        <ele>848</ele>
        <time>2020-01-15T09:20:38 01:00</time>
      </trkpt>
      <trkpt lat="43.77315" lon="7.41244">
        <ele>849</ele>
        <time>2020-01-15T09:20:43 01:00</time>
      </trkpt>
      <trkpt lat="43.773" lon="7.41154">
        <ele>859</ele>
        <time>2020-01-15T09:20:48 01:00</time>
      </trkpt>
      <trkpt lat="43.77284" lon="7.41102">
        <ele>867</ele>
        <time>2020-01-15T09:20:53 01:00</time>
      </trkpt>
      <trkpt lat="43.77245" lon="7.41096">
        <ele>867</ele>
        <time>2020-01-15T09:20:58 01:00</time>
      </trkpt>
      <trkpt lat="43.7719" lon="7.41165">
        <ele>857</ele>
        <time>2020-01-15T09:21:03 01:00</time>
      </trkpt>
      <trkpt lat="43.77171" lon="7.41227">
        <ele>864</ele>
        <time>2020-01-15T09:21:08 01:00</time>
      </trkpt>
      <trkpt lat="43.77052" lon="7.41326">
        <ele>860</ele>
        <time>2020-01-15T09:21:13 01:00</time>
      </trkpt>
      <trkpt lat="43.77013" lon="7.41336">
        <ele>851</ele>
        <time>2020-01-15T09:21:18 01:00</time>
      </trkpt>
      <trkpt lat="43.7699" lon="7.41326">
        <ele>845</ele>
        <time>2020-01-15T09:21:23 01:00</time>
      </trkpt>
      <trkpt lat="43.76886" lon="7.41328">
        <ele>843</ele>
        <time>2020-01-15T09:21:28 01:00</time>
      </trkpt>
      <trkpt lat="43.76835" lon="7.41268">
        <ele>839</ele>
        <time>2020-01-15T09:21:33 01:00</time>
      </trkpt>
      <trkpt lat="43.76821" lon="7.41261">
        <ele>839</ele>
        <time>2020-01-15T09:21:38 01:00</time>
      </trkpt>
      <trkpt lat="43.76748" lon="7.41276">
        <ele>839</ele>
        <time>2020-01-15T09:21:43 01:00</time>
      </trkpt>
      <trkpt lat="43.76711" lon="7.41336">
        <ele>841</ele>
        <time>2020-01-15T09:21:48 01:00</time>
      </trkpt>
      <trkpt lat="43.76678" lon="7.41343">
        <ele>839</ele>
        <time>2020-01-15T09:21:53 01:00</time>
      </trkpt>
      <trkpt lat="43.76624" lon="7.41319">
        <ele>836</ele>
        <time>2020-01-15T09:21:58 01:00</time>
      </trkpt>
      <trkpt lat="43.76481" lon="7.4133">
        <ele>827</ele>
        <time>2020-01-15T09:22:03 01:00</time>
      </trkpt>
      <trkpt lat="43.76436" lon="7.41304">
        <ele>821</ele>
        <time>2020-01-15T09:22:08 01:00</time>
      </trkpt>
      <trkpt lat="43.76302" lon="7.41347">
        <ele>813</ele>
        <time>2020-01-15T09:22:13 01:00</time>
      </trkpt>
      <trkpt lat="43.76227" lon="7.41426">
        <ele>807</ele>
        <time>2020-01-15T09:22:18 01:00</time>
      </trkpt>
      <trkpt lat="43.76206" lon="7.41566">
        <ele>799</ele>
        <time>2020-01-15T09:22:23 01:00</time>
      </trkpt>
      <trkpt lat="43.76212" lon="7.41577">
        <ele>799</ele>
        <time>2020-01-15T09:22:28 01:00</time>
      </trkpt>
      <trkpt lat="43.76264" lon="7.416">
        <ele>800</ele>
        <time>2020-01-15T09:22:33 01:00</time>
      </trkpt>
      <trkpt lat="43.76271" lon="7.41632">
        <ele>798</ele>
        <time>2020-01-15T09:22:38 01:00</time>
      </trkpt>
      <trkpt lat="43.76246" lon="7.4175">
        <ele>791</ele>
        <time>2020-01-15T09:22:43 01:00</time>
      </trkpt>
      <trkpt lat="43.76134" lon="7.41939">
        <ele>775</ele>
        <time>2020-01-15T09:22:48 01:00</time>
      </trkpt>
    </trkseg>
  </trk>
</gpx>